sensor_id;sensor_type;location;lat;lon;timestamp;P1;durP1;ratioP1;P2;durP2;ratioP2
59145;SDS011;44928;53.074;6.646;2022-09-30T00:01:38;5.25;;;1.95;;
59145;SDS011;44928;53.074;6.646;2022-09-30T00:04:05;6.28;;;2.38;;
59145;SDS011;44928;53.074;6.646;2022-09-30T00:06:32;6.28;;;2.33;;
59145;SDS011;44928;53.074;6.646;2022-09-30T00:09:01;7.40;;;2.65;;
59145;SDS011;44928;53.074;6.646;2022-09-30T00:11:29;7.30;;;2.60;;
59145;SDS011;44928;53.074;6.646;2022-09-30T00:13:56;4.85;;;2.15;;
59145;SDS011;44928;53.074;6.646;2022-09-30T00:16:23;5.93;;;2.72;;
59145;SDS011;44928;53.074;6.646;2022-09-30T00:18:52;7.55;;;2.42;;
59145;SDS011;44928;53.074;6.646;2022-09-30T00:21:20;5.57;;;2.25;;
59145;SDS011;44928;53.074;6.646;2022-09-30T00:23:47;9.25;;;3.10;;
59145;SDS011;44928;53.074;6.646;2022-09-30T00:26:14;5.65;;;2.40;;
59145;SDS011;44928;53.074;6.646;2022-09-30T00:28:42;5.47;;;2.15;;
59145;SDS011;44928;53.074;6.646;2022-09-30T00:31:12;10.30;;;3.00;;
59145;SDS011;44928;53.074;6.646;2022-09-30T00:33:40;5.30;;;2.10;;
59145;SDS011;44928;53.074;6.646;2022-09-30T00:36:07;6.40;;;2.17;;
59145;SDS011;44928;53.074;6.646;2022-09-30T00:38:33;5.05;;;2.10;;
59145;SDS011;44928;53.074;6.646;2022-09-30T00:40:59;5.75;;;2.05;;
59145;SDS011;44928;53.074;6.646;2022-09-30T00:43:40;7.88;;;2.28;;
59145;SDS011;44928;53.074;6.646;2022-09-30T00:48:48;6.75;;;1.90;;
59145;SDS011;44928;53.074;6.646;2022-09-30T00:54:06;7.10;;;2.00;;
59145;SDS011;44928;53.074;6.646;2022-09-30T00:56:39;5.20;;;2.13;;
59145;SDS011;44928;53.074;6.646;2022-09-30T00:59:19;5.70;;;2.13;;
59145;SDS011;44928;53.074;6.646;2022-09-30T01:04:17;5.10;;;2.10;;
59145;SDS011;44928;53.074;6.646;2022-09-30T01:06:45;4.63;;;1.88;;
59145;SDS011;44928;53.074;6.646;2022-09-30T01:09:12;6.28;;;2.20;;
59145;SDS011;44928;53.074;6.646;2022-09-30T01:11:38;5.90;;;2.03;;
59145;SDS011;44928;53.074;6.646;2022-09-30T01:14:04;5.03;;;2.13;;
59145;SDS011;44928;53.074;6.646;2022-09-30T01:27:24;9.63;;;2.45;;
59145;SDS011;44928;53.074;6.646;2022-09-30T01:32:39;5.28;;;1.90;;
59145;SDS011;44928;53.074;6.646;2022-09-30T01:45:45;6.97;;;2.67;;
59145;SDS011;44928;53.074;6.646;2022-09-30T01:48:22;7.60;;;3.10;;
59145;SDS011;44928;53.074;6.646;2022-09-30T01:50:55;7.55;;;2.85;;
59145;SDS011;44928;53.074;6.646;2022-09-30T01:53:44;10.13;;;2.90;;
59145;SDS011;44928;53.074;6.646;2022-09-30T01:56:16;6.13;;;2.55;;
59145;SDS011;44928;53.074;6.646;2022-09-30T01:58:56;5.53;;;2.28;;
59145;SDS011;44928;53.074;6.646;2022-09-30T02:01:41;6.80;;;2.22;;
59145;SDS011;44928;53.074;6.646;2022-09-30T02:05:15;5.60;;;2.50;;
59145;SDS011;44928;53.074;6.646;2022-09-30T02:07:14;8.70;;;2.80;;
59145;SDS011;44928;53.074;6.646;2022-09-30T02:12:41;10.18;;;3.13;;
59145;SDS011;44928;53.074;6.646;2022-09-30T02:15:14;5.90;;;2.50;;
59145;SDS011;44928;53.074;6.646;2022-09-30T02:17:48;5.22;;;2.05;;
59145;SDS011;44928;53.074;6.646;2022-09-30T02:20:34;6.15;;;2.58;;
59145;SDS011;44928;53.074;6.646;2022-09-30T02:23:22;5.82;;;2.35;;
59145;SDS011;44928;53.074;6.646;2022-09-30T02:25:57;7.03;;;2.25;;
59145;SDS011;44928;53.074;6.646;2022-09-30T02:28:45;6.75;;;2.60;;
59145;SDS011;44928;53.074;6.646;2022-09-30T02:31:19;5.82;;;2.38;;
59145;SDS011;44928;53.074;6.646;2022-09-30T02:34:10;5.87;;;2.33;;
59145;SDS011;44928;53.074;6.646;2022-09-30T02:36:57;5.40;;;2.30;;
59145;SDS011;44928;53.074;6.646;2022-09-30T02:39:40;4.75;;;2.08;;
59145;SDS011;44928;53.074;6.646;2022-09-30T02:42:17;6.82;;;2.40;;
59145;SDS011;44928;53.074;6.646;2022-09-30T02:44:54;7.95;;;2.28;;
59145;SDS011;44928;53.074;6.646;2022-09-30T02:58:37;7.10;;;2.70;;
59145;SDS011;44928;53.074;6.646;2022-09-30T03:01:06;6.07;;;2.90;;
59145;SDS011;44928;53.074;6.646;2022-09-30T03:03:39;7.20;;;2.75;;
59145;SDS011;44928;53.074;6.646;2022-09-30T03:06:11;5.93;;;2.58;;
59145;SDS011;44928;53.074;6.646;2022-09-30T03:08:38;5.55;;;2.33;;
59145;SDS011;44928;53.074;6.646;2022-09-30T03:11:03;6.00;;;2.45;;
59145;SDS011;44928;53.074;6.646;2022-09-30T03:13:35;5.88;;;2.60;;
59145;SDS011;44928;53.074;6.646;2022-09-30T03:30:26;5.95;;;1.52;;
59145;SDS011;44928;53.074;6.646;2022-09-30T03:36:04;5.68;;;1.85;;
59145;SDS011;44928;53.074;6.646;2022-09-30T03:38:49;5.40;;;1.65;;
59145;SDS011;44928;53.074;6.646;2022-09-30T03:44:11;6.13;;;1.85;;
59145;SDS011;44928;53.074;6.646;2022-09-30T03:46:46;9.55;;;2.17;;
59145;SDS011;44928;53.074;6.646;2022-09-30T03:49:22;4.65;;;2.00;;
59145;SDS011;44928;53.074;6.646;2022-09-30T03:51:52;7.63;;;2.53;;
59145;SDS011;44928;53.074;6.646;2022-09-30T03:54:19;7.47;;;2.80;;
59145;SDS011;44928;53.074;6.646;2022-09-30T03:56:46;5.63;;;2.42;;
59145;SDS011;44928;53.074;6.646;2022-09-30T03:59:22;5.63;;;2.47;;
59145;SDS011;44928;53.074;6.646;2022-09-30T04:01:50;6.15;;;2.40;;
59145;SDS011;44928;53.074;6.646;2022-09-30T04:04:16;6.22;;;2.38;;
59145;SDS011;44928;53.074;6.646;2022-09-30T04:06:42;6.72;;;2.20;;
59145;SDS011;44928;53.074;6.646;2022-09-30T04:09:08;3.90;;;1.40;;
59145;SDS011;44928;53.074;6.646;2022-09-30T04:11:34;6.78;;;1.88;;
59145;SDS011;44928;53.074;6.646;2022-09-30T04:14:00;4.05;;;1.70;;
59145;SDS011;44928;53.074;6.646;2022-09-30T04:16:29;5.78;;;1.73;;
59145;SDS011;44928;53.074;6.646;2022-09-30T04:18:55;5.97;;;2.00;;
59145;SDS011;44928;53.074;6.646;2022-09-30T04:21:22;5.22;;;2.10;;
59145;SDS011;44928;53.074;6.646;2022-09-30T04:23:48;4.13;;;1.92;;
59145;SDS011;44928;53.074;6.646;2022-09-30T04:26:14;7.47;;;2.30;;
59145;SDS011;44928;53.074;6.646;2022-09-30T04:28:41;7.53;;;2.13;;
59145;SDS011;44928;53.074;6.646;2022-09-30T04:31:08;5.68;;;2.28;;
59145;SDS011;44928;53.074;6.646;2022-09-30T04:33:38;21.73;;;3.15;;
59145;SDS011;44928;53.074;6.646;2022-09-30T04:36:05;8.18;;;3.05;;
59145;SDS011;44928;53.074;6.646;2022-09-30T04:38:31;8.52;;;2.70;;
59145;SDS011;44928;53.074;6.646;2022-09-30T04:41:00;6.60;;;2.45;;
59145;SDS011;44928;53.074;6.646;2022-09-30T04:43:28;6.35;;;2.63;;
59145;SDS011;44928;53.074;6.646;2022-09-30T04:45:54;7.80;;;2.85;;
59145;SDS011;44928;53.074;6.646;2022-09-30T04:48:21;7.35;;;2.53;;
59145;SDS011;44928;53.074;6.646;2022-09-30T04:50:47;6.90;;;2.83;;
59145;SDS011;44928;53.074;6.646;2022-09-30T04:53:13;5.40;;;2.40;;
59145;SDS011;44928;53.074;6.646;2022-09-30T04:55:41;6.07;;;2.88;;
59145;SDS011;44928;53.074;6.646;2022-09-30T04:58:07;6.65;;;2.97;;
59145;SDS011;44928;53.074;6.646;2022-09-30T05:00:33;8.15;;;3.00;;
59145;SDS011;44928;53.074;6.646;2022-09-30T05:02:59;8.82;;;2.55;;
59145;SDS011;44928;53.074;6.646;2022-09-30T05:05:25;8.40;;;2.80;;
59145;SDS011;44928;53.074;6.646;2022-09-30T05:07:50;8.57;;;2.22;;
59145;SDS011;44928;53.074;6.646;2022-09-30T05:10:16;5.68;;;2.30;;
59145;SDS011;44928;53.074;6.646;2022-09-30T05:12:42;6.22;;;2.63;;
59145;SDS011;44928;53.074;6.646;2022-09-30T05:15:09;6.32;;;2.50;;
59145;SDS011;44928;53.074;6.646;2022-09-30T05:17:35;11.05;;;2.63;;
59145;SDS011;44928;53.074;6.646;2022-09-30T05:20:01;5.40;;;2.45;;
59145;SDS011;44928;53.074;6.646;2022-09-30T05:22:28;5.88;;;2.42;;
59145;SDS011;44928;53.074;6.646;2022-09-30T05:24:54;6.57;;;2.67;;
59145;SDS011;44928;53.074;6.646;2022-09-30T05:27:20;8.70;;;2.85;;
59145;SDS011;44928;53.074;6.646;2022-09-30T05:29:47;6.57;;;2.42;;
59145;SDS011;44928;53.074;6.646;2022-09-30T05:32:13;7.40;;;2.22;;
59145;SDS011;44928;53.074;6.646;2022-09-30T05:34:39;9.85;;;2.95;;
59145;SDS011;44928;53.074;6.646;2022-09-30T05:37:05;8.23;;;2.85;;
59145;SDS011;44928;53.074;6.646;2022-09-30T05:39:32;7.70;;;2.53;;
59145;SDS011;44928;53.074;6.646;2022-09-30T05:41:58;8.27;;;2.40;;
59145;SDS011;44928;53.074;6.646;2022-09-30T05:44:24;7.22;;;2.58;;
59145;SDS011;44928;53.074;6.646;2022-09-30T05:46:50;12.30;;;2.63;;
59145;SDS011;44928;53.074;6.646;2022-09-30T05:49:16;6.38;;;2.28;;
59145;SDS011;44928;53.074;6.646;2022-09-30T05:51:41;6.78;;;2.60;;
59145;SDS011;44928;53.074;6.646;2022-09-30T05:54:08;9.55;;;2.80;;
59145;SDS011;44928;53.074;6.646;2022-09-30T05:56:35;8.10;;;2.50;;
59145;SDS011;44928;53.074;6.646;2022-09-30T05:59:04;6.10;;;2.40;;
59145;SDS011;44928;53.074;6.646;2022-09-30T06:01:34;7.50;;;2.35;;
59145;SDS011;44928;53.074;6.646;2022-09-30T06:04:01;5.95;;;2.38;;
59145;SDS011;44928;53.074;6.646;2022-09-30T06:06:27;5.40;;;2.33;;
59145;SDS011;44928;53.074;6.646;2022-09-30T06:08:54;6.38;;;2.67;;
59145;SDS011;44928;53.074;6.646;2022-09-30T06:11:20;6.80;;;2.28;;
59145;SDS011;44928;53.074;6.646;2022-09-30T06:13:49;6.28;;;2.33;;
59145;SDS011;44928;53.074;6.646;2022-09-30T06:16:16;9.48;;;2.35;;
59145;SDS011;44928;53.074;6.646;2022-09-30T06:18:43;10.02;;;2.00;;
59145;SDS011;44928;53.074;6.646;2022-09-30T06:21:10;5.28;;;2.00;;
59145;SDS011;44928;53.074;6.646;2022-09-30T06:23:38;5.78;;;2.45;;
59145;SDS011;44928;53.074;6.646;2022-09-30T06:26:05;5.28;;;2.17;;
59145;SDS011;44928;53.074;6.646;2022-09-30T06:28:32;6.63;;;2.42;;
59145;SDS011;44928;53.074;6.646;2022-09-30T06:30:59;5.22;;;2.38;;
59145;SDS011;44928;53.074;6.646;2022-09-30T06:33:26;7.53;;;2.58;;
59145;SDS011;44928;53.074;6.646;2022-09-30T06:35:53;15.27;;;3.13;;
59145;SDS011;44928;53.074;6.646;2022-09-30T06:38:19;7.72;;;2.67;;
59145;SDS011;44928;53.074;6.646;2022-09-30T06:40:46;5.68;;;2.40;;
59145;SDS011;44928;53.074;6.646;2022-09-30T06:43:14;6.97;;;2.85;;
59145;SDS011;44928;53.074;6.646;2022-09-30T06:45:41;5.13;;;2.50;;
59145;SDS011;44928;53.074;6.646;2022-09-30T06:48:09;6.30;;;2.58;;
59145;SDS011;44928;53.074;6.646;2022-09-30T06:50:34;9.40;;;2.65;;
59145;SDS011;44928;53.074;6.646;2022-09-30T06:53:02;7.47;;;2.67;;
59145;SDS011;44928;53.074;6.646;2022-09-30T06:55:33;8.25;;;3.35;;
59145;SDS011;44928;53.074;6.646;2022-09-30T06:58:03;9.25;;;3.78;;
59145;SDS011;44928;53.074;6.646;2022-09-30T07:00:35;8.70;;;4.30;;
59145;SDS011;44928;53.074;6.646;2022-09-30T07:03:02;11.45;;;5.00;;
59145;SDS011;44928;53.074;6.646;2022-09-30T07:05:30;8.52;;;4.53;;
59145;SDS011;44928;53.074;6.646;2022-09-30T07:07:56;10.63;;;4.50;;
59145;SDS011;44928;53.074;6.646;2022-09-30T07:10:23;11.18;;;5.07;;
59145;SDS011;44928;53.074;6.646;2022-09-30T07:12:51;8.50;;;4.75;;
59145;SDS011;44928;53.074;6.646;2022-09-30T07:15:18;7.90;;;4.70;;
59145;SDS011;44928;53.074;6.646;2022-09-30T07:17:53;9.23;;;5.28;;
59145;SDS011;44928;53.074;6.646;2022-09-30T07:20:23;10.77;;;5.43;;
59145;SDS011;44928;53.074;6.646;2022-09-30T07:22:49;10.00;;;5.68;;
59145;SDS011;44928;53.074;6.646;2022-09-30T07:25:15;10.23;;;6.35;;
59145;SDS011;44928;53.074;6.646;2022-09-30T07:27:42;11.52;;;6.80;;
59145;SDS011;44928;53.074;6.646;2022-09-30T07:30:09;11.02;;;6.63;;
59145;SDS011;44928;53.074;6.646;2022-09-30T07:32:35;12.40;;;7.00;;
59145;SDS011;44928;53.074;6.646;2022-09-30T07:35:01;14.05;;;7.90;;
59145;SDS011;44928;53.074;6.646;2022-09-30T07:37:27;11.73;;;7.30;;
59145;SDS011;44928;53.074;6.646;2022-09-30T07:39:54;13.65;;;7.75;;
59145;SDS011;44928;53.074;6.646;2022-09-30T07:42:20;15.00;;;9.05;;
59145;SDS011;44928;53.074;6.646;2022-09-30T07:44:46;13.65;;;8.77;;
59145;SDS011;44928;53.074;6.646;2022-09-30T07:47:14;18.17;;;10.30;;
59145;SDS011;44928;53.074;6.646;2022-09-30T07:49:41;17.23;;;9.60;;
59145;SDS011;44928;53.074;6.646;2022-09-30T07:52:07;16.58;;;10.45;;
59145;SDS011;44928;53.074;6.646;2022-09-30T07:54:34;16.35;;;10.55;;
59145;SDS011;44928;53.074;6.646;2022-09-30T07:57:01;16.85;;;10.25;;
59145;SDS011;44928;53.074;6.646;2022-09-30T07:59:28;20.13;;;11.30;;
59145;SDS011;44928;53.074;6.646;2022-09-30T08:01:56;22.05;;;11.18;;
59145;SDS011;44928;53.074;6.646;2022-09-30T08:04:22;21.88;;;12.27;;
59145;SDS011;44928;53.074;6.646;2022-09-30T08:06:51;18.60;;;12.20;;
59145;SDS011;44928;53.074;6.646;2022-09-30T08:09:20;23.67;;;13.27;;
59145;SDS011;44928;53.074;6.646;2022-09-30T08:11:47;20.88;;;13.23;;
59145;SDS011;44928;53.074;6.646;2022-09-30T08:14:14;23.95;;;13.40;;
59145;SDS011;44928;53.074;6.646;2022-09-30T08:16:41;23.52;;;14.02;;
59145;SDS011;44928;53.074;6.646;2022-09-30T08:19:08;23.08;;;14.73;;
59145;SDS011;44928;53.074;6.646;2022-09-30T08:21:47;24.17;;;13.83;;
59145;SDS011;44928;53.074;6.646;2022-09-30T08:24:14;21.05;;;13.20;;
59145;SDS011;44928;53.074;6.646;2022-09-30T08:26:41;22.45;;;14.02;;
59145;SDS011;44928;53.074;6.646;2022-09-30T08:29:07;23.23;;;15.38;;
59145;SDS011;44928;53.074;6.646;2022-09-30T08:31:35;25.00;;;15.15;;
59145;SDS011;44928;53.074;6.646;2022-09-30T08:34:01;24.02;;;14.18;;
59145;SDS011;44928;53.074;6.646;2022-09-30T08:36:28;25.25;;;14.60;;
59145;SDS011;44928;53.074;6.646;2022-09-30T08:38:54;26.25;;;15.15;;
59145;SDS011;44928;53.074;6.646;2022-09-30T08:41:23;30.70;;;15.63;;
59145;SDS011;44928;53.074;6.646;2022-09-30T08:46:45;35.58;;;16.33;;
59145;SDS011;44928;53.074;6.646;2022-09-30T08:51:55;36.35;;;15.85;;
59145;SDS011;44928;53.074;6.646;2022-09-30T08:54:24;35.65;;;15.38;;
59145;SDS011;44928;53.074;6.646;2022-09-30T08:56:53;31.50;;;15.43;;
59145;SDS011;44928;53.074;6.646;2022-09-30T09:02:08;26.88;;;13.52;;
59145;SDS011;44928;53.074;6.646;2022-09-30T09:04:41;25.88;;;12.50;;
59145;SDS011;44928;53.074;6.646;2022-09-30T09:07:42;24.25;;;12.85;;
59145;SDS011;44928;53.074;6.646;2022-09-30T09:20:58;26.73;;;14.68;;
59145;SDS011;44928;53.074;6.646;2022-09-30T09:23:33;20.70;;;11.73;;
59145;SDS011;44928;53.074;6.646;2022-09-30T09:26:00;23.10;;;12.25;;
59145;SDS011;44928;53.074;6.646;2022-09-30T09:28:39;22.67;;;11.40;;
59145;SDS011;44928;53.074;6.646;2022-09-30T09:31:10;22.48;;;11.57;;
59145;SDS011;44928;53.074;6.646;2022-09-30T09:33:41;22.83;;;11.95;;
59145;SDS011;44928;53.074;6.646;2022-09-30T09:44:25;21.42;;;12.75;;
59145;SDS011;44928;53.074;6.646;2022-09-30T09:47:00;21.35;;;12.35;;
59145;SDS011;44928;53.074;6.646;2022-09-30T09:49:35;20.48;;;12.32;;
59145;SDS011;44928;53.074;6.646;2022-09-30T09:57:06;21.48;;;11.82;;
59145;SDS011;44928;53.074;6.646;2022-09-30T09:59:33;22.10;;;12.45;;
59145;SDS011;44928;53.074;6.646;2022-09-30T10:02:00;20.70;;;12.23;;
59145;SDS011;44928;53.074;6.646;2022-09-30T10:04:27;23.55;;;13.50;;
59145;SDS011;44928;53.074;6.646;2022-09-30T10:07:01;19.90;;;12.45;;
59145;SDS011;44928;53.074;6.646;2022-09-30T10:09:38;19.40;;;12.70;;
59145;SDS011;44928;53.074;6.646;2022-09-30T10:14:31;17.85;;;12.23;;
59145;SDS011;44928;53.074;6.646;2022-09-30T10:17:00;19.50;;;11.55;;
59145;SDS011;44928;53.074;6.646;2022-09-30T10:19:29;16.58;;;10.93;;
59145;SDS011;44928;53.074;6.646;2022-09-30T10:24:32;11.98;;;7.15;;
59145;SDS011;44928;53.074;6.646;2022-09-30T10:27:00;12.45;;;7.85;;
59145;SDS011;44928;53.074;6.646;2022-09-30T10:31:59;7.20;;;3.87;;
59145;SDS011;44928;53.074;6.646;2022-09-30T10:36:55;6.18;;;2.78;;
59145;SDS011;44928;53.074;6.646;2022-09-30T10:39:24;7.50;;;2.97;;
59145;SDS011;44928;53.074;6.646;2022-09-30T10:42:02;6.72;;;2.38;;
59145;SDS011;44928;53.074;6.646;2022-09-30T10:44:47;5.80;;;2.05;;
59145;SDS011;44928;53.074;6.646;2022-09-30T10:47:18;5.53;;;2.00;;
59145;SDS011;44928;53.074;6.646;2022-09-30T10:52:24;5.15;;;1.80;;
59145;SDS011;44928;53.074;6.646;2022-09-30T10:54:53;4.88;;;1.75;;
59145;SDS011;44928;53.074;6.646;2022-09-30T10:57:25;6.05;;;2.03;;
59145;SDS011;44928;53.074;6.646;2022-09-30T10:59:57;4.35;;;1.88;;
59145;SDS011;44928;53.074;6.646;2022-09-30T11:02:40;4.65;;;1.70;;
59145;SDS011;44928;53.074;6.646;2022-09-30T11:05:33;5.63;;;1.63;;
59145;SDS011;44928;53.074;6.646;2022-09-30T11:10:55;5.10;;;1.80;;
59145;SDS011;44928;53.074;6.646;2022-09-30T11:18:41;5.28;;;2.10;;
59145;SDS011;44928;53.074;6.646;2022-09-30T11:21:28;5.75;;;2.30;;
59145;SDS011;44928;53.074;6.646;2022-09-30T11:31:36;6.22;;;3.00;;
59145;SDS011;44928;53.074;6.646;2022-09-30T11:59:13;5.80;;;1.90;;
59145;SDS011;44928;53.074;6.646;2022-09-30T12:04:34;5.38;;;2.17;;
59145;SDS011;44928;53.074;6.646;2022-09-30T12:07:05;5.32;;;2.22;;
59145;SDS011;44928;53.074;6.646;2022-09-30T12:09:56;6.82;;;2.40;;
59145;SDS011;44928;53.074;6.646;2022-09-30T12:12:25;5.57;;;2.17;;
59145;SDS011;44928;53.074;6.646;2022-09-30T12:14:56;5.22;;;1.95;;
59145;SDS011;44928;53.074;6.646;2022-09-30T12:17:27;5.78;;;1.80;;
59145;SDS011;44928;53.074;6.646;2022-09-30T12:19:58;4.78;;;1.70;;
59145;SDS011;44928;53.074;6.646;2022-09-30T12:22:49;4.68;;;1.73;;
59145;SDS011;44928;53.074;6.646;2022-09-30T12:25:27;4.60;;;1.50;;
59145;SDS011;44928;53.074;6.646;2022-09-30T12:30:48;4.72;;;1.83;;
59145;SDS011;44928;53.074;6.646;2022-09-30T12:33:41;4.53;;;1.48;;
59145;SDS011;44928;53.074;6.646;2022-09-30T12:42:15;5.68;;;2.00;;
59145;SDS011;44928;53.074;6.646;2022-09-30T12:47:50;7.00;;;2.30;;
59145;SDS011;44928;53.074;6.646;2022-09-30T12:50:22;5.82;;;2.15;;
59145;SDS011;44928;53.074;6.646;2022-09-30T12:52:54;6.35;;;1.98;;
59145;SDS011;44928;53.074;6.646;2022-09-30T12:55:29;6.05;;;1.85;;
59145;SDS011;44928;53.074;6.646;2022-09-30T12:58:02;5.53;;;2.55;;
59145;SDS011;44928;53.074;6.646;2022-09-30T13:00:30;7.50;;;2.58;;
59145;SDS011;44928;53.074;6.646;2022-09-30T13:03:03;7.40;;;3.08;;
59145;SDS011;44928;53.074;6.646;2022-09-30T13:13:22;10.98;;;2.92;;
59145;SDS011;44928;53.074;6.646;2022-09-30T13:16:00;10.45;;;3.53;;
59145;SDS011;44928;53.074;6.646;2022-09-30T13:21:15;8.57;;;4.20;;
59145;SDS011;44928;53.074;6.646;2022-09-30T13:23:44;7.95;;;3.80;;
59145;SDS011;44928;53.074;6.646;2022-09-30T13:28:47;9.05;;;3.85;;
59145;SDS011;44928;53.074;6.646;2022-09-30T13:31:21;9.27;;;4.40;;
59145;SDS011;44928;53.074;6.646;2022-09-30T13:42:17;10.35;;;5.50;;
59145;SDS011;44928;53.074;6.646;2022-09-30T13:45:16;8.65;;;5.22;;
59145;SDS011;44928;53.074;6.646;2022-09-30T13:47:58;9.57;;;5.68;;
59145;SDS011;44928;53.074;6.646;2022-09-30T13:53:30;9.05;;;4.80;;
59145;SDS011;44928;53.074;6.646;2022-09-30T13:55:59;8.43;;;4.95;;
59145;SDS011;44928;53.074;6.646;2022-09-30T14:04:33;7.90;;;4.93;;
59145;SDS011;44928;53.074;6.646;2022-09-30T14:07:10;10.52;;;5.13;;
59145;SDS011;44928;53.074;6.646;2022-09-30T14:23:27;9.25;;;5.20;;
59145;SDS011;44928;53.074;6.646;2022-09-30T14:28:25;10.55;;;5.75;;
59145;SDS011;44928;53.074;6.646;2022-09-30T14:30:59;8.63;;;4.57;;
59145;SDS011;44928;53.074;6.646;2022-09-30T14:33:32;8.30;;;5.05;;
59145;SDS011;44928;53.074;6.646;2022-09-30T14:35:59;8.02;;;4.28;;
59145;SDS011;44928;53.074;6.646;2022-09-30T14:38:29;8.88;;;5.20;;
59145;SDS011;44928;53.074;6.646;2022-09-30T14:40:57;8.77;;;4.80;;
59145;SDS011;44928;53.074;6.646;2022-09-30T14:43:34;9.98;;;5.00;;
59145;SDS011;44928;53.074;6.646;2022-09-30T14:46:07;7.80;;;4.63;;
59145;SDS011;44928;53.074;6.646;2022-09-30T14:48:50;8.30;;;4.03;;
59145;SDS011;44928;53.074;6.646;2022-09-30T14:51:18;9.05;;;4.43;;
59145;SDS011;44928;53.074;6.646;2022-09-30T14:53:55;7.80;;;4.53;;
59145;SDS011;44928;53.074;6.646;2022-09-30T14:56:29;9.27;;;4.80;;
59145;SDS011;44928;53.074;6.646;2022-09-30T14:59:05;9.55;;;4.70;;
59145;SDS011;44928;53.074;6.646;2022-09-30T15:01:53;7.93;;;4.20;;
59145;SDS011;44928;53.074;6.646;2022-09-30T15:04:28;8.50;;;4.20;;
59145;SDS011;44928;53.074;6.646;2022-09-30T15:06:58;10.00;;;3.92;;
59145;SDS011;44928;53.074;6.646;2022-09-30T15:09:27;7.88;;;3.72;;
59145;SDS011;44928;53.074;6.646;2022-09-30T15:12:21;7.82;;;3.90;;
59145;SDS011;44928;53.074;6.646;2022-09-30T15:17:26;7.72;;;4.07;;
59145;SDS011;44928;53.074;6.646;2022-09-30T15:19:54;7.85;;;4.13;;
59145;SDS011;44928;53.074;6.646;2022-09-30T15:22:22;7.75;;;4.07;;
59145;SDS011;44928;53.074;6.646;2022-09-30T15:24:50;8.65;;;4.60;;
59145;SDS011;44928;53.074;6.646;2022-09-30T15:32:38;9.00;;;4.80;;
59145;SDS011;44928;53.074;6.646;2022-09-30T15:35:14;7.70;;;4.25;;
59145;SDS011;44928;53.074;6.646;2022-09-30T15:37:44;8.77;;;4.15;;
59145;SDS011;44928;53.074;6.646;2022-09-30T15:40:11;10.25;;;4.53;;
59145;SDS011;44928;53.074;6.646;2022-09-30T15:43:04;8.75;;;4.70;;
59145;SDS011;44928;53.074;6.646;2022-09-30T15:45:33;9.95;;;5.10;;
59145;SDS011;44928;53.074;6.646;2022-09-30T15:50:39;9.88;;;5.75;;
59145;SDS011;44928;53.074;6.646;2022-09-30T15:55:50;9.57;;;6.05;;
59145;SDS011;44928;53.074;6.646;2022-09-30T16:06:23;9.60;;;6.60;;
59145;SDS011;44928;53.074;6.646;2022-09-30T16:09:00;10.00;;;6.28;;
59145;SDS011;44928;53.074;6.646;2022-09-30T16:11:34;9.95;;;5.45;;
59145;SDS011;44928;53.074;6.646;2022-09-30T16:14:03;8.68;;;5.30;;
59145;SDS011;44928;53.074;6.646;2022-09-30T16:16:31;11.23;;;6.32;;
59145;SDS011;44928;53.074;6.646;2022-09-30T16:18:59;9.52;;;5.03;;
59145;SDS011;44928;53.074;6.646;2022-09-30T16:21:40;9.60;;;5.22;;
59145;SDS011;44928;53.074;6.646;2022-09-30T16:26:53;11.88;;;6.28;;
59145;SDS011;44928;53.074;6.646;2022-09-30T16:29:20;11.18;;;6.20;;
59145;SDS011;44928;53.074;6.646;2022-09-30T16:31:47;9.18;;;5.88;;
59145;SDS011;44928;53.074;6.646;2022-09-30T16:34:20;10.18;;;6.07;;
59145;SDS011;44928;53.074;6.646;2022-09-30T16:36:51;9.57;;;5.57;;
59145;SDS011;44928;53.074;6.646;2022-09-30T16:39:18;11.15;;;5.93;;
59145;SDS011;44928;53.074;6.646;2022-09-30T16:41:44;9.32;;;5.30;;
59145;SDS011;44928;53.074;6.646;2022-09-30T16:44:11;10.70;;;5.70;;
59145;SDS011;44928;53.074;6.646;2022-09-30T16:46:37;12.48;;;6.35;;
59145;SDS011;44928;53.074;6.646;2022-09-30T16:49:16;11.68;;;6.30;;
59145;SDS011;44928;53.074;6.646;2022-09-30T16:51:43;11.60;;;6.53;;
59145;SDS011;44928;53.074;6.646;2022-09-30T16:54:09;13.55;;;7.15;;
59145;SDS011;44928;53.074;6.646;2022-09-30T16:56:36;11.23;;;5.85;;
59145;SDS011;44928;53.074;6.646;2022-09-30T16:59:02;12.10;;;6.05;;
59145;SDS011;44928;53.074;6.646;2022-09-30T17:01:28;10.02;;;5.55;;
59145;SDS011;44928;53.074;6.646;2022-09-30T17:03:55;9.80;;;4.90;;
59145;SDS011;44928;53.074;6.646;2022-09-30T17:06:25;8.98;;;4.70;;
59145;SDS011;44928;53.074;6.646;2022-09-30T17:08:53;9.75;;;5.15;;
59145;SDS011;44928;53.074;6.646;2022-09-30T17:11:26;8.68;;;4.63;;
59145;SDS011;44928;53.074;6.646;2022-09-30T17:13:57;10.93;;;4.70;;
59145;SDS011;44928;53.074;6.646;2022-09-30T17:16:24;8.80;;;4.80;;
59145;SDS011;44928;53.074;6.646;2022-09-30T17:18:51;10.77;;;4.70;;
59145;SDS011;44928;53.074;6.646;2022-09-30T17:21:18;8.85;;;4.22;;
59145;SDS011;44928;53.074;6.646;2022-09-30T17:23:44;8.57;;;4.85;;
59145;SDS011;44928;53.074;6.646;2022-09-30T17:26:10;11.07;;;4.80;;
59145;SDS011;44928;53.074;6.646;2022-09-30T17:28:36;9.77;;;4.65;;
59145;SDS011;44928;53.074;6.646;2022-09-30T17:31:02;9.70;;;5.30;;
59145;SDS011;44928;53.074;6.646;2022-09-30T17:33:28;9.40;;;5.00;;
59145;SDS011;44928;53.074;6.646;2022-09-30T17:36:00;11.90;;;5.53;;
59145;SDS011;44928;53.074;6.646;2022-09-30T17:38:29;11.35;;;6.07;;
59145;SDS011;44928;53.074;6.646;2022-09-30T17:40:55;11.50;;;4.93;;
59145;SDS011;44928;53.074;6.646;2022-09-30T17:43:39;8.07;;;3.97;;
59145;SDS011;44928;53.074;6.646;2022-09-30T17:46:05;8.23;;;4.00;;
59145;SDS011;44928;53.074;6.646;2022-09-30T17:48:31;8.13;;;3.40;;
59145;SDS011;44928;53.074;6.646;2022-09-30T17:50:57;8.57;;;3.47;;
59145;SDS011;44928;53.074;6.646;2022-09-30T17:53:24;8.05;;;3.85;;
59145;SDS011;44928;53.074;6.646;2022-09-30T17:56:00;8.98;;;4.05;;
59145;SDS011;44928;53.074;6.646;2022-09-30T17:58:28;8.07;;;3.83;;
59145;SDS011;44928;53.074;6.646;2022-09-30T18:00:54;8.38;;;3.40;;
59145;SDS011;44928;53.074;6.646;2022-09-30T18:03:22;8.57;;;3.45;;
59145;SDS011;44928;53.074;6.646;2022-09-30T18:05:55;8.40;;;2.70;;
59145;SDS011;44928;53.074;6.646;2022-09-30T18:08:22;7.57;;;3.15;;
59145;SDS011;44928;53.074;6.646;2022-09-30T18:10:49;7.10;;;3.28;;
59145;SDS011;44928;53.074;6.646;2022-09-30T18:13:16;7.72;;;3.03;;
59145;SDS011;44928;53.074;6.646;2022-09-30T18:15:43;7.25;;;2.75;;
59145;SDS011;44928;53.074;6.646;2022-09-30T18:18:10;9.45;;;3.22;;
59145;SDS011;44928;53.074;6.646;2022-09-30T18:20:41;8.45;;;3.38;;
59145;SDS011;44928;53.074;6.646;2022-09-30T18:23:14;6.82;;;2.88;;
59145;SDS011;44928;53.074;6.646;2022-09-30T18:25:45;8.38;;;3.05;;
59145;SDS011;44928;53.074;6.646;2022-09-30T18:28:13;6.82;;;2.63;;
59145;SDS011;44928;53.074;6.646;2022-09-30T18:30:40;6.57;;;2.90;;
59145;SDS011;44928;53.074;6.646;2022-09-30T18:33:07;7.43;;;2.97;;
59145;SDS011;44928;53.074;6.646;2022-09-30T18:35:35;7.15;;;2.67;;
59145;SDS011;44928;53.074;6.646;2022-09-30T18:38:03;6.32;;;2.42;;
59145;SDS011;44928;53.074;6.646;2022-09-30T18:40:29;7.25;;;2.55;;
59145;SDS011;44928;53.074;6.646;2022-09-30T18:42:56;10.45;;;2.67;;
59145;SDS011;44928;53.074;6.646;2022-09-30T18:45:26;7.43;;;2.70;;
59145;SDS011;44928;53.074;6.646;2022-09-30T18:47:54;7.78;;;2.50;;
59145;SDS011;44928;53.074;6.646;2022-09-30T18:50:21;6.53;;;2.72;;
59145;SDS011;44928;53.074;6.646;2022-09-30T18:52:51;7.25;;;2.40;;
59145;SDS011;44928;53.074;6.646;2022-09-30T18:55:18;10.77;;;3.08;;
59145;SDS011;44928;53.074;6.646;2022-09-30T18:57:44;7.28;;;3.17;;
59145;SDS011;44928;53.074;6.646;2022-09-30T19:00:13;10.25;;;4.05;;